VCP3DO SCEL-SCIE
Flight info
| Callsign | VCP3DO |
|---|---|
| Flight time | 0h 55m |
| Altitude | 23000 |
| Route | GELUS3C GELUS UQ809 ARUNI ARUNI6C |
| Aircraft | DH8D/M-SDE2E3FGRY/H |
Departure
| Time | 2026-04-25 14:33 |
|---|---|
| Airport | Comodoro Arturo Merino Benítez International Airport (SCEL) |
Arrival
| Time | 2026-04-25 15:28 |
|---|---|
| Airport | Carriel Sur International Airport (SCIE) |
| Time | Latitude | Longitude | Altitude | Speed | Heading |
|---|---|---|---|---|---|
| 2026-04-25 14:01 | -33.40564 | -70.79776 | 1565 ft | 0 kts | 267° |
| 2026-04-25 14:18 | -33.40563 | -70.79775 | 1565 ft | 1 kts | 267° |
| 2026-04-25 14:19 | -33.40563 | -70.79758 | 1565 ft | 2 kts | 267° |
| 2026-04-25 14:19 | -33.40562 | -70.79740 | 1565 ft | 2 kts | 267° |
| 2026-04-25 14:19 | -33.40561 | -70.79722 | 1565 ft | 2 kts | 267° |
| 2026-04-25 14:19 | -33.40561 | -70.79704 | 1565 ft | 2 kts | 267° |
| 2026-04-25 14:20 | -33.40560 | -70.79688 | 1565 ft | 1 kts | 282° |
| 2026-04-25 14:20 | -33.40564 | -70.79678 | 1565 ft | 1 kts | 323° |
| 2026-04-25 14:20 | -33.40576 | -70.79675 | 1565 ft | 0 kts | 359° |
| 2026-04-25 14:25 | -33.40575 | -70.79675 | 1565 ft | 0 kts | 359° |
| 2026-04-25 14:25 | -33.40544 | -70.79676 | 1565 ft | 5 kts | 357° |
| 2026-04-25 14:25 | -33.40490 | -70.79689 | 1565 ft | 9 kts | 321° |
| 2026-04-25 14:25 | -33.40478 | -70.79712 | 1565 ft | 9 kts | 284° |
| 2026-04-25 14:26 | -33.40480 | -70.79830 | 1565 ft | 7 kts | 268° |
| 2026-04-25 14:26 | -33.40496 | -70.79878 | 1565 ft | 6 kts | 213° |
| 2026-04-25 14:26 | -33.40509 | -70.79919 | 1565 ft | 7 kts | 293° |
| 2026-04-25 14:26 | -33.40512 | -70.79980 | 1565 ft | 9 kts | 226° |
| 2026-04-25 14:27 | -33.40588 | -70.79987 | 1565 ft | 6 kts | 174° |
| 2026-04-25 14:27 | -33.40605 | -70.80004 | 1565 ft | 3 kts | 262° |
| 2026-04-25 14:27 | -33.40603 | -70.80031 | 1565 ft | 3 kts | 280° |
| 2026-04-25 14:27 | -33.40601 | -70.80054 | 1565 ft | 2 kts | 273° |
| 2026-04-25 14:28 | -33.40600 | -70.80070 | 1565 ft | 0 kts | 273° |
| 2026-04-25 14:30 | -33.40600 | -70.80072 | 1565 ft | 2 kts | 273° |
| 2026-04-25 14:31 | -33.40601 | -70.80145 | 1565 ft | 10 kts | 268° |
| 2026-04-25 14:31 | -33.40580 | -70.80191 | 1565 ft | 3 kts | 350° |
| 2026-04-25 14:31 | -33.40559 | -70.80193 | 1565 ft | 2 kts | 356° |
| 2026-04-25 14:31 | -33.40539 | -70.80195 | 1565 ft | 7 kts | 356° |
| 2026-04-25 14:32 | -33.40472 | -70.80198 | 1565 ft | 28 kts | 358° |
| 2026-04-25 14:32 | -33.39954 | -70.80225 | 1565 ft | 115 kts | 357° |
| 2026-04-25 14:32 | -33.38950 | -70.80280 | 1582 ft | 163 kts | 358° |
| 2026-04-25 14:32 | -33.37742 | -70.80322 | 1850 ft | 184 kts | 359° |
| 2026-04-25 14:33 | -33.36375 | -70.80373 | 2214 ft | 205 kts | 359° |
| 2026-04-25 14:33 | -33.34887 | -70.80331 | 2628 ft | 219 kts | 2° |
| 2026-04-25 14:33 | -33.33343 | -70.80349 | 3140 ft | 228 kts | 359° |
| 2026-04-25 14:33 | -33.31717 | -70.80417 | 3659 ft | 237 kts | 359° |
| 2026-04-25 14:34 | -33.30042 | -70.80494 | 4231 ft | 241 kts | 359° |
| 2026-04-25 14:34 | -33.28365 | -70.80572 | 4840 ft | 242 kts | 359° |
| 2026-04-25 14:34 | -33.26685 | -70.80647 | 5408 ft | 246 kts | 0° |
| 2026-04-25 14:34 | -33.25034 | -70.80228 | 5895 ft | 247 kts | 32° |
| 2026-04-25 14:35 | -33.23957 | -70.78677 | 6356 ft | 246 kts | 72° |
| 2026-04-25 14:35 | -33.23965 | -70.76686 | 6765 ft | 245 kts | 111° |
| 2026-04-25 14:35 | -33.25032 | -70.75162 | 7276 ft | 246 kts | 149° |
| 2026-04-25 14:35 | -33.26639 | -70.74388 | 7855 ft | 247 kts | 161° |
| 2026-04-25 14:36 | -33.28264 | -70.73748 | 8393 ft | 247 kts | 162° |
| 2026-04-25 14:36 | -33.29910 | -70.73109 | 8882 ft | 247 kts | 162° |
| 2026-04-25 14:36 | -33.31545 | -70.72478 | 9383 ft | 248 kts | 162° |
| 2026-04-25 14:36 | -33.33193 | -70.71840 | 9853 ft | 249 kts | 162° |
| 2026-04-25 14:37 | -33.34858 | -70.71195 | 10242 ft | 255 kts | 163° |
| 2026-04-25 14:37 | -33.36567 | -70.70532 | 10621 ft | 261 kts | 163° |
| 2026-04-25 14:37 | -33.38300 | -70.69859 | 11000 ft | 266 kts | 163° |
| 2026-04-25 14:37 | -33.40099 | -70.69159 | 11384 ft | 270 kts | 163° |
| 2026-04-25 14:38 | -33.41892 | -70.68461 | 11755 ft | 275 kts | 163° |
| 2026-04-25 14:38 | -33.43736 | -70.67762 | 12132 ft | 279 kts | 167° |
| 2026-04-25 14:38 | -33.45657 | -70.67715 | 12433 ft | 278 kts | 198° |
| 2026-04-25 14:38 | -33.47333 | -70.68820 | 12794 ft | 276 kts | 217° |
| 2026-04-25 14:39 | -33.48886 | -70.70189 | 13198 ft | 279 kts | 218° |
| 2026-04-25 14:39 | -33.50445 | -70.71582 | 13626 ft | 281 kts | 218° |
| 2026-04-25 14:39 | -33.52021 | -70.72997 | 14009 ft | 282 kts | 218° |
| 2026-04-25 14:39 | -33.53612 | -70.74428 | 14310 ft | 283 kts | 218° |
| 2026-04-25 14:40 | -33.55171 | -70.75831 | 14652 ft | 283 kts | 218° |
| 2026-04-25 14:40 | -33.56759 | -70.77260 | 15023 ft | 283 kts | 218° |
| 2026-04-25 14:40 | -33.58338 | -70.78683 | 15345 ft | 283 kts | 218° |
| 2026-04-25 14:40 | -33.59807 | -70.80248 | 15651 ft | 283 kts | 226° |
| 2026-04-25 14:41 | -33.61173 | -70.81965 | 15907 ft | 283 kts | 227° |
| 2026-04-25 14:41 | -33.62527 | -70.83680 | 16199 ft | 283 kts | 227° |
| 2026-04-25 14:41 | -33.63873 | -70.85386 | 16533 ft | 283 kts | 227° |
| 2026-04-25 14:41 | -33.65232 | -70.87104 | 16858 ft | 283 kts | 226° |
| 2026-04-25 14:42 | -33.66581 | -70.88809 | 17179 ft | 281 kts | 226° |
| 2026-04-25 14:42 | -33.67484 | -70.89949 | 17391 ft | 279 kts | 226° |
| 2026-04-25 14:42 | -33.69254 | -70.92185 | 17819 ft | 276 kts | 226° |
| 2026-04-25 14:42 | -33.70583 | -70.93863 | 18144 ft | 274 kts | 226° |
| 2026-04-25 14:43 | -33.71884 | -70.95506 | 18419 ft | 272 kts | 226° |
| 2026-04-25 14:43 | -33.73184 | -70.97147 | 18680 ft | 271 kts | 226° |
| 2026-04-25 14:43 | -33.74490 | -70.98798 | 18946 ft | 268 kts | 226° |
| 2026-04-25 14:43 | -33.75776 | -71.00422 | 19206 ft | 266 kts | 226° |
| 2026-04-25 14:44 | -33.77037 | -71.02016 | 19446 ft | 264 kts | 226° |
| 2026-04-25 14:44 | -33.78306 | -71.03620 | 19690 ft | 261 kts | 226° |
| 2026-04-25 14:44 | -33.79549 | -71.05193 | 19935 ft | 258 kts | 226° |
| 2026-04-25 14:44 | -33.80775 | -71.06745 | 20180 ft | 255 kts | 226° |
| 2026-04-25 14:45 | -33.82016 | -71.08317 | 20332 ft | 256 kts | 226° |
| 2026-04-25 14:45 | -33.83248 | -71.09878 | 20453 ft | 261 kts | 226° |
| 2026-04-25 14:45 | -33.84541 | -71.11523 | 20616 ft | 276 kts | 226° |
| 2026-04-25 14:45 | -33.85880 | -71.13226 | 20789 ft | 289 kts | 226° |
| 2026-04-25 14:46 | -33.87294 | -71.15022 | 20940 ft | 300 kts | 226° |
| 2026-04-25 14:46 | -33.88738 | -71.16853 | 21077 ft | 300 kts | 225° |
| 2026-04-25 14:46 | -33.90174 | -71.18671 | 21208 ft | 296 kts | 226° |
| 2026-04-25 14:46 | -33.91633 | -71.20354 | 21311 ft | 292 kts | 217° |
| 2026-04-25 14:47 | -33.93388 | -71.21565 | 21454 ft | 289 kts | 208° |
| 2026-04-25 14:47 | -33.94591 | -71.22293 | 21544 ft | 287 kts | 208° |
| 2026-04-25 14:47 | -33.96977 | -71.23734 | 21714 ft | 290 kts | 208° |
| 2026-04-25 14:47 | -33.98815 | -71.24856 | 21859 ft | 301 kts | 208° |
| 2026-04-25 14:48 | -34.00691 | -71.26000 | 22024 ft | 309 kts | 208° |
| 2026-04-25 14:48 | -34.02629 | -71.27183 | 22347 ft | 311 kts | 208° |
| 2026-04-25 14:48 | -34.04565 | -71.28365 | 22732 ft | 311 kts | 208° |
| 2026-04-25 14:48 | -34.06506 | -71.29553 | 23100 ft | 309 kts | 208° |
| 2026-04-25 14:49 | -34.08400 | -71.30708 | 23159 ft | 304 kts | 208° |
| 2026-04-25 14:49 | -34.10294 | -71.31865 | 23165 ft | 301 kts | 208° |
| 2026-04-25 14:49 | -34.12146 | -71.32999 | 23167 ft | 299 kts | 208° |
| 2026-04-25 14:49 | -34.14038 | -71.34165 | 23187 ft | 311 kts | 208° |
| 2026-04-25 14:50 | -34.15996 | -71.35375 | 23190 ft | 321 kts | 208° |
| 2026-04-25 14:50 | -34.17996 | -71.36604 | 23173 ft | 318 kts | 208° |
| 2026-04-25 14:50 | -34.19957 | -71.37807 | 23172 ft | 313 kts | 208° |
| 2026-04-25 14:50 | -34.21876 | -71.38985 | 23173 ft | 309 kts | 208° |
| 2026-04-25 14:51 | -34.23795 | -71.40166 | 23175 ft | 306 kts | 208° |
| 2026-04-25 14:51 | -34.25690 | -71.41334 | 23172 ft | 304 kts | 208° |
| 2026-04-25 14:51 | -34.27556 | -71.42484 | 23177 ft | 302 kts | 208° |
| 2026-04-25 14:51 | -34.29430 | -71.43641 | 23176 ft | 300 kts | 208° |
| 2026-04-25 14:52 | -34.31295 | -71.44793 | 23180 ft | 299 kts | 208° |
| 2026-04-25 14:52 | -34.33125 | -71.45924 | 23182 ft | 299 kts | 208° |
| 2026-04-25 14:52 | -34.35015 | -71.47098 | 23199 ft | 312 kts | 208° |
| 2026-04-25 14:52 | -34.36333 | -71.47919 | 23196 ft | 319 kts | 208° |
| 2026-04-25 14:53 | -34.39016 | -71.49583 | 23179 ft | 323 kts | 208° |
| 2026-04-25 14:53 | -34.40989 | -71.50799 | 23183 ft | 317 kts | 208° |
| 2026-04-25 14:53 | -34.42926 | -71.51996 | 23183 ft | 313 kts | 208° |
| 2026-04-25 14:53 | -34.44862 | -71.53194 | 23191 ft | 309 kts | 208° |
| 2026-04-25 14:54 | -34.46765 | -71.54372 | 23191 ft | 307 kts | 208° |
| 2026-04-25 14:54 | -34.48674 | -71.55557 | 23188 ft | 304 kts | 208° |
| 2026-04-25 14:54 | -34.50540 | -71.56715 | 23188 ft | 302 kts | 208° |
| 2026-04-25 14:54 | -34.52418 | -71.57881 | 23191 ft | 301 kts | 208° |
| 2026-04-25 14:55 | -34.54284 | -71.59042 | 23190 ft | 299 kts | 208° |
| 2026-04-25 14:55 | -34.56118 | -71.60181 | 23194 ft | 298 kts | 208° |
| 2026-04-25 14:55 | -34.57959 | -71.61327 | 23192 ft | 300 kts | 208° |
| 2026-04-25 14:55 | -34.59879 | -71.62528 | 23202 ft | 313 kts | 208° |
| 2026-04-25 14:56 | -34.61829 | -71.63748 | 23205 ft | 323 kts | 208° |
| 2026-04-25 14:56 | -34.63864 | -71.65018 | 23206 ft | 327 kts | 208° |
| 2026-04-25 14:56 | -34.65879 | -71.66269 | 23198 ft | 322 kts | 208° |
| 2026-04-25 14:56 | -34.67846 | -71.67491 | 23193 ft | 318 kts | 208° |
| 2026-04-25 14:57 | -34.69816 | -71.68718 | 23194 ft | 315 kts | 208° |
| 2026-04-25 14:57 | -34.71755 | -71.69926 | 23196 ft | 312 kts | 209° |
| 2026-04-25 14:57 | -34.73681 | -71.71129 | 23203 ft | 310 kts | 209° |
| 2026-04-25 14:57 | -34.75603 | -71.72329 | 23205 ft | 308 kts | 209° |
| 2026-04-25 14:58 | -34.77502 | -71.73516 | 23200 ft | 306 kts | 208° |
| 2026-04-25 14:58 | -34.79397 | -71.74701 | 23201 ft | 305 kts | 209° |
| 2026-04-25 14:58 | -34.81271 | -71.75874 | 23199 ft | 304 kts | 209° |
| 2026-04-25 14:58 | -34.83147 | -71.77048 | 23203 ft | 303 kts | 209° |
| 2026-04-25 14:59 | -34.85044 | -71.78237 | 23205 ft | 303 kts | 209° |
| 2026-04-25 14:59 | -34.86905 | -71.79403 | 23208 ft | 302 kts | 209° |
| 2026-04-25 14:59 | -34.88756 | -71.80564 | 23210 ft | 302 kts | 209° |
| 2026-04-25 14:59 | -34.90628 | -71.81739 | 23211 ft | 302 kts | 208° |
| 2026-04-25 15:00 | -34.92498 | -71.82913 | 23207 ft | 301 kts | 208° |
| 2026-04-25 15:00 | -34.94377 | -71.84093 | 23207 ft | 301 kts | 208° |
| 2026-04-25 15:00 | -34.96241 | -71.85265 | 23209 ft | 301 kts | 208° |
| 2026-04-25 15:00 | -34.98098 | -71.86432 | 23209 ft | 301 kts | 209° |
| 2026-04-25 15:01 | -34.99966 | -71.87607 | 23213 ft | 301 kts | 208° |
| 2026-04-25 15:01 | -35.01811 | -71.88768 | 23214 ft | 301 kts | 209° |
| 2026-04-25 15:01 | -35.03669 | -71.89938 | 23221 ft | 300 kts | 209° |
| 2026-04-25 15:01 | -35.05528 | -71.91110 | 23226 ft | 300 kts | 209° |
| 2026-04-25 15:02 | -35.07391 | -71.92284 | 23223 ft | 300 kts | 209° |
| 2026-04-25 15:02 | -35.09267 | -71.93466 | 23219 ft | 300 kts | 209° |
| 2026-04-25 15:02 | -35.11111 | -71.94630 | 23229 ft | 300 kts | 209° |
| 2026-04-25 15:02 | -35.12973 | -71.95806 | 23226 ft | 300 kts | 209° |
| 2026-04-25 15:03 | -35.14835 | -71.96982 | 23217 ft | 300 kts | 209° |
| 2026-04-25 15:03 | -35.16706 | -71.98164 | 23222 ft | 300 kts | 209° |
| 2026-04-25 15:03 | -35.18566 | -71.99340 | 23228 ft | 299 kts | 209° |
| 2026-04-25 15:03 | -35.20430 | -72.00519 | 23236 ft | 299 kts | 209° |
| 2026-04-25 15:04 | -35.22261 | -72.01678 | 23230 ft | 299 kts | 209° |
| 2026-04-25 15:04 | -35.24128 | -72.02860 | 23229 ft | 299 kts | 209° |
| 2026-04-25 15:04 | -35.25970 | -72.04027 | 23223 ft | 299 kts | 209° |
| 2026-04-25 15:04 | -35.27813 | -72.05196 | 23226 ft | 299 kts | 209° |
| 2026-04-25 15:05 | -35.29679 | -72.06379 | 23232 ft | 299 kts | 209° |
| 2026-04-25 15:05 | -35.31516 | -72.07546 | 23230 ft | 300 kts | 209° |
| 2026-04-25 15:05 | -35.33386 | -72.08733 | 23234 ft | 300 kts | 209° |
| 2026-04-25 15:06 | -35.37095 | -72.11092 | 23227 ft | 300 kts | 209° |
| 2026-04-25 15:06 | -35.38961 | -72.12279 | 23225 ft | 300 kts | 209° |
| 2026-04-25 15:06 | -35.40812 | -72.13458 | 23223 ft | 300 kts | 209° |
| 2026-04-25 15:06 | -35.42668 | -72.14640 | 23216 ft | 300 kts | 209° |
| 2026-04-25 15:07 | -35.44518 | -72.15820 | 23214 ft | 301 kts | 209° |
| 2026-04-25 15:07 | -35.46385 | -72.17011 | 23216 ft | 301 kts | 209° |
| 2026-04-25 15:07 | -35.48248 | -72.18198 | 23222 ft | 301 kts | 209° |
| 2026-04-25 15:07 | -35.50102 | -72.19383 | 23221 ft | 302 kts | 209° |
| 2026-04-25 15:08 | -35.51997 | -72.20593 | 23217 ft | 302 kts | 209° |
| 2026-04-25 15:08 | -35.53842 | -72.21772 | 23213 ft | 302 kts | 209° |
| 2026-04-25 15:08 | -35.55715 | -72.22970 | 23221 ft | 302 kts | 209° |
| 2026-04-25 15:08 | -35.57586 | -72.24167 | 23221 ft | 302 kts | 209° |
| 2026-04-25 15:09 | -35.59457 | -72.25364 | 23225 ft | 303 kts | 209° |
| 2026-04-25 15:09 | -35.61335 | -72.26567 | 23230 ft | 303 kts | 209° |
| 2026-04-25 15:09 | -35.65094 | -72.28977 | 23142 ft | 307 kts | 209° |
| 2026-04-25 15:10 | -35.66972 | -72.30183 | 22850 ft | 307 kts | 209° |
| 2026-04-25 15:10 | -35.68877 | -72.31401 | 22495 ft | 305 kts | 209° |
| 2026-04-25 15:10 | -35.72650 | -72.33820 | 21514 ft | 311 kts | 209° |
| 2026-04-25 15:11 | -35.74569 | -72.35053 | 21072 ft | 311 kts | 209° |
| 2026-04-25 15:11 | -35.76471 | -72.36275 | 20683 ft | 309 kts | 209° |
| 2026-04-25 15:11 | -35.78384 | -72.37505 | 20299 ft | 308 kts | 209° |
| 2026-04-25 15:12 | -35.82154 | -72.39932 | 19546 ft | 307 kts | 209° |
| 2026-04-25 15:12 | -35.84047 | -72.41151 | 19161 ft | 307 kts | 208° |
| 2026-04-25 15:12 | -35.85955 | -72.42383 | 18778 ft | 307 kts | 208° |
| 2026-04-25 15:12 | -35.86586 | -72.42790 | 18655 ft | 307 kts | 209° |
| 2026-04-25 15:13 | -35.89736 | -72.44859 | 18023 ft | 307 kts | 211° |
| 2026-04-25 15:13 | -35.93383 | -72.47607 | 17264 ft | 307 kts | 212° |
| 2026-04-25 15:13 | -35.95223 | -72.49002 | 16884 ft | 307 kts | 212° |
| 2026-04-25 15:14 | -35.97023 | -72.50363 | 16503 ft | 308 kts | 212° |
| 2026-04-25 15:14 | -35.98852 | -72.51743 | 16120 ft | 307 kts | 212° |
| 2026-04-25 15:14 | -36.00672 | -72.53115 | 15738 ft | 307 kts | 212° |
| 2026-04-25 15:14 | -36.02501 | -72.54493 | 15363 ft | 308 kts | 212° |
| 2026-04-25 15:15 | -36.04331 | -72.55872 | 14981 ft | 309 kts | 212° |
| 2026-04-25 15:15 | -36.06167 | -72.57253 | 14599 ft | 309 kts | 212° |
| 2026-04-25 15:15 | -36.08002 | -72.58636 | 14213 ft | 310 kts | 212° |
| 2026-04-25 15:15 | -36.09855 | -72.60031 | 13821 ft | 311 kts | 212° |
| 2026-04-25 15:16 | -36.11698 | -72.61418 | 13445 ft | 311 kts | 212° |
| 2026-04-25 15:16 | -36.13541 | -72.62807 | 13061 ft | 310 kts | 212° |
| 2026-04-25 15:16 | -36.17219 | -72.65579 | 12293 ft | 309 kts | 212° |
| 2026-04-25 15:17 | -36.20896 | -72.68353 | 11513 ft | 303 kts | 212° |
| 2026-04-25 15:17 | -36.22656 | -72.69676 | 11143 ft | 292 kts | 212° |
| 2026-04-25 15:17 | -36.24337 | -72.70938 | 10790 ft | 278 kts | 212° |
| 2026-04-25 15:18 | -36.25975 | -72.72173 | 10451 ft | 271 kts | 212° |
| 2026-04-25 15:18 | -36.29157 | -72.74581 | 9796 ft | 266 kts | 212° |
| 2026-04-25 15:18 | -36.30736 | -72.75777 | 9464 ft | 264 kts | 212° |
| 2026-04-25 15:19 | -36.32288 | -72.76952 | 9148 ft | 262 kts | 212° |
| 2026-04-25 15:19 | -36.33337 | -72.77747 | 8932 ft | 262 kts | 212° |
| 2026-04-25 15:19 | -36.35392 | -72.79306 | 8502 ft | 260 kts | 212° |
| 2026-04-25 15:19 | -36.36940 | -72.80479 | 8178 ft | 259 kts | 211° |
| 2026-04-25 15:20 | -36.38477 | -72.81646 | 7857 ft | 257 kts | 211° |
| 2026-04-25 15:20 | -36.39999 | -72.82792 | 7538 ft | 253 kts | 211° |
| 2026-04-25 15:20 | -36.41502 | -72.83913 | 7230 ft | 250 kts | 211° |
| 2026-04-25 15:20 | -36.42993 | -72.85027 | 6922 ft | 249 kts | 210° |
| 2026-04-25 15:21 | -36.44471 | -72.86131 | 6608 ft | 248 kts | 210° |
| 2026-04-25 15:21 | -36.45927 | -72.87220 | 6312 ft | 246 kts | 210° |
| 2026-04-25 15:21 | -36.47390 | -72.88313 | 6013 ft | 241 kts | 210° |
| 2026-04-25 15:21 | -36.48816 | -72.89381 | 5713 ft | 238 kts | 210° |
| 2026-04-25 15:22 | -36.50232 | -72.90442 | 5425 ft | 240 kts | 210° |
| 2026-04-25 15:22 | -36.51689 | -72.91488 | 5132 ft | 242 kts | 206° |
| 2026-04-25 15:22 | -36.53220 | -72.92400 | 4825 ft | 243 kts | 204° |
| 2026-04-25 15:22 | -36.54744 | -72.93278 | 4521 ft | 244 kts | 204° |
| 2026-04-25 15:23 | -36.56273 | -72.94154 | 4207 ft | 231 kts | 204° |
| 2026-04-25 15:23 | -36.57706 | -72.94977 | 3933 ft | 223 kts | 203° |
| 2026-04-25 15:23 | -36.59081 | -72.95770 | 3661 ft | 216 kts | 203° |
| 2026-04-25 15:23 | -36.60403 | -72.96533 | 3377 ft | 204 kts | 203° |
| 2026-04-25 15:24 | -36.61680 | -72.97269 | 3110 ft | 197 kts | 203° |
| 2026-04-25 15:24 | -36.62925 | -72.97991 | 2866 ft | 198 kts | 203° |
| 2026-04-25 15:24 | -36.64162 | -72.98707 | 2580 ft | 192 kts | 203° |
| 2026-04-25 15:24 | -36.64955 | -72.99164 | 2407 ft | 186 kts | 202° |
| 2026-04-25 15:25 | -36.66537 | -73.00084 | 2070 ft | 186 kts | 202° |
| 2026-04-25 15:25 | -36.67670 | -73.00740 | 1816 ft | 173 kts | 202° |
| 2026-04-25 15:25 | -36.68732 | -73.01358 | 1596 ft | 166 kts | 203° |
| 2026-04-25 15:25 | -36.69784 | -73.01976 | 1370 ft | 165 kts | 204° |
| 2026-04-25 15:26 | -36.70816 | -73.02578 | 1152 ft | 160 kts | 204° |
| 2026-04-25 15:26 | -36.71803 | -73.03149 | 937 ft | 151 kts | 205° |
| 2026-04-25 15:26 | -36.72754 | -73.03691 | 734 ft | 147 kts | 203° |
| 2026-04-25 15:26 | -36.73682 | -73.04208 | 600 ft | 143 kts | 204° |
| 2026-04-25 15:27 | -36.74579 | -73.04724 | 447 ft | 143 kts | 206° |
| 2026-04-25 15:27 | -36.75491 | -73.05272 | 240 ft | 146 kts | 204° |
| 2026-04-25 15:27 | -36.77188 | -73.06267 | 56 ft | 101 kts | 205° |
| 2026-04-25 15:28 | -36.77647 | -73.06535 | 63 ft | 51 kts | 206° |
| 2026-04-25 15:28 | -36.77888 | -73.06674 | 61 ft | 22 kts | 205° |
| 2026-04-25 15:28 | -36.77964 | -73.06667 | 60 ft | 7 kts | 125° |
| 2026-04-25 15:28 | -36.77988 | -73.06610 | 60 ft | 8 kts | 115° |
| 2026-04-25 15:29 | -36.78001 | -73.06516 | 60 ft | 11 kts | 70° |
| 2026-04-25 15:29 | -36.77934 | -73.06455 | 61 ft | 13 kts | 26° |
| 2026-04-25 15:29 | -36.77841 | -73.06401 | 62 ft | 14 kts | 26° |
| 2026-04-25 15:29 | -36.77758 | -73.06351 | 64 ft | 14 kts | 25° |
| 2026-04-25 15:30 | -36.77657 | -73.06293 | 64 ft | 15 kts | 25° |
| 2026-04-25 15:30 | -36.77563 | -73.06237 | 62 ft | 14 kts | 25° |
| 2026-04-25 15:30 | -36.77501 | -73.06194 | 61 ft | 6 kts | 72° |
| 2026-04-25 15:30 | -36.77526 | -73.06103 | 61 ft | 13 kts | 116° |
| 2026-04-25 15:31 | -36.77570 | -73.06037 | 61 ft | 7 kts | 164° |
| 2026-04-25 15:31 | -36.77611 | -73.06025 | 61 ft | 4 kts | 167° |
| 2026-04-25 15:31 | -36.77625 | -73.06021 | 62 ft | 0 kts | 167° |